createdAt,value
2022-08-01T00:00:52.380Z,16.31
2022-08-01T00:05:55.875Z,16.31
2022-08-01T00:11:02.636Z,16.30
2022-08-01T00:16:07.832Z,16.23
2022-08-01T00:21:11.568Z,16.02
2022-08-01T00:26:15.862Z,15.71
2022-08-01T00:31:21.233Z,15.39
2022-08-01T00:36:24.784Z,15.39
2022-08-01T00:41:28.601Z,15.29
2022-08-01T00:46:33.788Z,15.24
2022-08-01T00:51:37.322Z,15.25
2022-08-01T00:56:40.681Z,15.25
2022-08-01T01:01:46.750Z,15.24
2022-08-01T01:07:05.656Z,15.16
2022-08-01T01:12:19.907Z,15.07
2022-08-01T01:17:50.080Z,15.02
2022-08-01T01:23:08.573Z,14.94
2022-08-01T01:28:19.387Z,14.91
2022-08-01T01:33:29.450Z,14.87
2022-08-01T01:38:39.035Z,14.83
2022-08-01T01:43:42.909Z,14.75
2022-08-01T01:48:49.858Z,14.75
2022-08-01T01:53:55.647Z,14.72
2022-08-01T01:59:03.091Z,14.69
2022-08-01T02:04:08.848Z,14.65
2022-08-01T02:09:12.705Z,14.65
2022-08-01T02:14:17.841Z,14.73
2022-08-01T02:19:23.203Z,14.80
2022-08-01T02:24:34.094Z,14.86
2022-08-01T02:29:42.672Z,14.85
2022-08-01T02:34:51.500Z,14.92
2022-08-01T02:39:57.164Z,14.90
2022-08-01T02:45:00.686Z,14.98
2022-08-01T02:50:09.282Z,15.12
2022-08-01T02:55:15.304Z,15.21
2022-08-01T03:00:20.430Z,15.25
2022-08-01T03:05:31.014Z,15.37
2022-08-01T03:10:36.050Z,15.52
2022-08-01T03:15:42.420Z,15.73
2022-08-01T03:20:48.402Z,16.25
2022-08-01T03:25:52.942Z,16.83
2022-08-01T03:30:56.555Z,17.32
2022-08-01T03:36:04.384Z,17.33
2022-08-01T03:41:14.279Z,17.91
2022-08-01T03:46:22.540Z,18.27
2022-08-01T03:51:31.991Z,18.57
2022-08-01T03:56:36.630Z,19.31
2022-08-01T04:01:40.216Z,23.63
2022-08-01T04:06:46.144Z,28.18
2022-08-01T04:11:50.493Z,31.12
2022-08-01T04:16:53.850Z,31.31
2022-08-01T04:21:58.894Z,33.10
2022-08-01T04:27:03.939Z,34.44
2022-08-01T04:32:10.809Z,34.80
2022-08-01T04:37:18.594Z,36.58
2022-08-01T04:42:25.088Z,36.72
2022-08-01T04:47:32.790Z,37.01
2022-08-01T04:52:39.159Z,37.09
2022-08-01T04:57:46.335Z,38.14
2022-08-01T05:02:49.727Z,38.57
2022-08-01T05:07:56.965Z,38.24
2022-08-01T05:13:00.782Z,39.78
2022-08-01T05:18:04.149Z,41.08
2022-08-01T05:23:10.698Z,42.65
2022-08-01T05:28:19.035Z,43.65
2022-08-01T05:33:22.915Z,44.80
2022-08-01T05:38:27.615Z,46.95
2022-08-01T05:43:31.032Z,44.68
2022-08-01T05:48:34.357Z,44.80
2022-08-01T05:53:39.113Z,45.19
2022-08-01T05:58:42.595Z,45.28
2022-08-01T06:03:45.985Z,43.99
2022-08-01T06:08:51.581Z,43.59
2022-08-01T06:13:55.062Z,43.84
2022-08-01T06:18:58.387Z,42.73
2022-08-01T06:24:03.104Z,42.40
2022-08-01T06:29:06.447Z,41.92
2022-08-01T06:34:09.813Z,43.35
2022-08-01T06:39:14.563Z,43.64
2022-08-01T06:44:17.908Z,42.53
2022-08-01T06:49:21.264Z,40.83
2022-08-01T06:54:26.089Z,39.89
2022-08-01T06:59:29.390Z,41.00
2022-08-01T07:04:33.259Z,41.67
2022-08-01T07:09:37.970Z,42.09
2022-08-01T07:14:41.352Z,42.48
2022-08-01T07:19:44.920Z,41.18
2022-08-01T07:24:54.429Z,40.91
2022-08-01T07:29:58.197Z,39.81
2022-08-01T07:35:01.730Z,38.87
2022-08-01T07:40:09.461Z,41.14
2022-08-01T07:45:14.722Z,40.37
2022-08-01T07:50:18.787Z,41.51
2022-08-01T07:55:23.754Z,43.09
2022-08-01T08:00:28.595Z,43.49
2022-08-01T08:05:58.842Z,41.20
2022-08-01T08:10:56.810Z,39.19
2022-08-01T08:16:00.872Z,37.05
2022-08-01T08:21:06.751Z,36.02
2022-08-01T08:26:11.908Z,35.48
2022-08-01T08:31:25.507Z,35.50
2022-08-01T08:36:38.692Z,34.60
2022-08-01T08:41:52.540Z,34.00
2022-08-01T08:46:57.386Z,33.92
2022-08-01T08:52:02.249Z,34.74
2022-08-01T08:57:08.066Z,33.31
2022-08-01T09:02:13.702Z,33.04
2022-08-01T09:07:17.310Z,33.48
2022-08-01T09:12:22.563Z,34.17
2022-08-01T09:17:26.222Z,33.23
2022-08-01T09:22:35.449Z,32.01
2022-08-01T09:27:44.379Z,31.90
2022-08-01T09:32:57.830Z,32.03
2022-08-01T09:38:23.465Z,31.98
2022-08-01T09:43:31.479Z,31.96
2022-08-01T09:48:35.275Z,31.35
2022-08-01T09:53:52.488Z,31.59
2022-08-01T09:59:01.595Z,31.58
2022-08-01T10:04:11.338Z,31.05
2022-08-01T10:09:16.404Z,31.03
2022-08-01T10:14:21.725Z,31.80
2022-08-01T10:19:28.863Z,31.25
2022-08-01T10:24:33.557Z,30.68
2022-08-01T10:29:46.163Z,30.42
2022-08-01T10:35:06.570Z,30.51
2022-08-01T10:40:29.819Z,30.78
2022-08-01T10:45:36.104Z,29.95
2022-08-01T10:50:44.200Z,29.93
2022-08-01T10:55:53.343Z,29.73
2022-08-01T11:01:23.163Z,30.04
2022-08-01T11:06:28.174Z,29.81
2022-08-01T11:11:37.783Z,29.91
2022-08-01T11:16:43.210Z,30.10
2022-08-01T11:22:04.954Z,30.14
2022-08-01T11:27:31.344Z,30.05
2022-08-01T11:33:10.800Z,29.77
2022-08-01T11:38:29.891Z,29.24
2022-08-01T11:43:33.250Z,28.85
2022-08-01T11:48:37.717Z,28.41
2022-08-01T11:53:48.694Z,28.28
2022-08-01T11:59:00.851Z,28.00
2022-08-01T12:04:06.195Z,27.89
2022-08-01T12:09:21.203Z,28.39
2022-08-01T12:14:24.535Z,28.36
2022-08-01T12:19:29.336Z,28.54
2022-08-01T12:24:32.768Z,28.82
2022-08-01T12:29:37.765Z,28.88
2022-08-01T12:34:42.515Z,29.10
2022-08-01T12:39:46.236Z,28.84
2022-08-01T12:44:53.149Z,29.09
2022-08-01T12:49:59.299Z,28.67
2022-08-01T12:55:06.437Z,28.55
2022-08-01T13:00:18.248Z,28.34
2022-08-01T13:05:27.081Z,28.72
2022-08-01T13:10:31.930Z,29.13
2022-08-01T13:15:41.505Z,29.04
2022-08-01T13:20:50.553Z,28.81
2022-08-01T13:25:58.194Z,28.30
2022-08-01T13:31:02.838Z,27.76
2022-08-01T13:36:08.102Z,27.72
2022-08-01T13:41:11.551Z,27.58
2022-08-01T13:46:14.584Z,27.56
2022-08-01T13:51:23.523Z,27.24
2022-08-01T13:56:29.231Z,27.30
2022-08-01T14:01:34.659Z,27.25
2022-08-01T14:06:39.673Z,27.13
2022-08-01T14:11:45.947Z,27.06
2022-08-01T14:16:49.498Z,26.82
2022-08-01T14:21:55.380Z,26.81
2022-08-01T14:26:58.914Z,26.77
2022-08-01T14:32:01.990Z,26.65
2022-08-01T14:37:06.690Z,26.53
2022-08-01T14:42:11.756Z,26.67
2022-08-01T14:47:22.148Z,26.76
2022-08-01T14:52:27.441Z,26.98
2022-08-01T14:57:30.840Z,27.06
2022-08-01T15:02:34.354Z,27.05
2022-08-01T15:07:51.702Z,26.80
2022-08-01T15:12:57.900Z,26.61
2022-08-01T15:18:01.304Z,26.27
2022-08-01T15:23:06.183Z,26.20
2022-08-01T15:28:10.756Z,26.17
2022-08-01T15:33:14.308Z,26.10
2022-08-01T15:38:20.370Z,26.02
2022-08-01T15:43:23.731Z,25.87
2022-08-01T15:48:30.495Z,25.85
2022-08-01T15:53:35.243Z,25.87
2022-08-01T15:58:38.684Z,25.89
2022-08-01T16:03:42.012Z,25.91
2022-08-01T16:08:46.694Z,25.84
2022-08-01T16:13:50.143Z,25.63
2022-08-01T16:18:54.039Z,25.47
2022-08-01T16:23:59.209Z,25.39
2022-08-01T16:29:02.770Z,25.41
2022-08-01T16:34:06.110Z,25.34
2022-08-01T16:39:11.547Z,25.24
2022-08-01T16:44:16.347Z,24.96
2022-08-01T16:49:32.846Z,24.74
2022-08-01T16:54:37.747Z,24.60
2022-08-01T16:59:42.009Z,24.48
2022-08-01T17:04:45.694Z,24.33
2022-08-01T17:09:50.602Z,24.21
2022-08-01T17:14:54.509Z,24.02
2022-08-01T17:19:58.025Z,23.83
2022-08-01T17:25:02.878Z,23.65
2022-08-01T17:30:07.945Z,23.40
2022-08-01T17:35:12.507Z,23.12
2022-08-01T17:40:39.061Z,22.89
2022-08-01T17:45:50.943Z,22.80
2022-08-01T17:50:54.900Z,22.61
2022-08-01T17:56:05.722Z,22.51
2022-08-01T18:01:09.586Z,22.26
2022-08-01T18:06:15.743Z,22.14
2022-08-01T18:11:21.249Z,22.05
2022-08-01T18:16:24.803Z,21.77
2022-08-01T18:21:28.115Z,21.58
2022-08-01T18:26:33.018Z,21.52
2022-08-01T18:31:36.463Z,21.30
2022-08-01T18:36:40.503Z,21.12
2022-08-01T18:41:45.829Z,21.03
2022-08-01T18:46:49.321Z,20.98
2022-08-01T18:51:54.311Z,20.82
2022-08-01T18:56:59.090Z,20.70
2022-08-01T19:02:02.571Z,20.60
2022-08-01T19:07:06.037Z,20.53
2022-08-01T19:12:11.147Z,20.63
2022-08-01T19:17:14.819Z,20.56
2022-08-01T19:22:18.730Z,20.42
2022-08-01T19:27:26.540Z,20.17
2022-08-01T19:32:33.025Z,19.90
2022-08-01T19:37:36.743Z,19.69
2022-08-01T19:42:42.874Z,19.50
2022-08-01T19:47:50.969Z,19.30
2022-08-01T19:53:03.202Z,19.16
2022-08-01T19:58:26.394Z,19.05
2022-08-01T20:03:32.732Z,18.93
2022-08-01T20:08:36.789Z,18.77
2022-08-01T20:13:41.682Z,18.74
2022-08-01T20:18:45.505Z,18.72
2022-08-01T20:23:52.130Z,18.65
2022-08-01T20:28:57.965Z,18.68
2022-08-01T20:34:02.803Z,18.61
2022-08-01T20:39:06.329Z,18.61
2022-08-01T20:44:14.130Z,18.59
2022-08-01T20:49:18.154Z,18.36
2022-08-01T20:54:21.887Z,18.27
2022-08-01T20:59:39.975Z,18.33
2022-08-01T21:05:02.102Z,18.32
2022-08-01T21:10:09.113Z,18.31
2022-08-01T21:15:20.086Z,18.34
2022-08-01T21:20:23.884Z,18.30
2022-08-01T21:25:34.055Z,18.14
2022-08-01T21:30:41.421Z,18.05
2022-08-01T21:35:47.260Z,17.98
2022-08-01T21:40:51.853Z,18.15
2022-08-01T21:45:58.457Z,18.04
2022-08-01T21:51:06.967Z,17.92
2022-08-01T21:56:20.778Z,17.95
2022-08-01T22:01:31.998Z,17.91
2022-08-01T22:06:37.010Z,17.84
2022-08-01T22:12:10.237Z,17.64
2022-08-01T22:17:07.550Z,17.58
2022-08-01T22:22:32.233Z,17.47
2022-08-01T22:28:06.131Z,17.28
2022-08-01T22:33:07.202Z,17.28
2022-08-01T22:38:20.968Z,17.25
2022-08-01T22:43:30.728Z,17.19
2022-08-01T22:48:42.010Z,17.14
2022-08-01T22:54:01.892Z,17.14
2022-08-01T22:59:13.477Z,17.05
2022-08-01T23:04:33.138Z,17.02
2022-08-01T23:09:53.121Z,17.01
2022-08-01T23:14:59.413Z,17.09
2022-08-01T23:20:07.409Z,17.11
2022-08-01T23:25:12.731Z,17.04
2022-08-01T23:30:16.136Z,17.00
2022-08-01T23:35:21.036Z,17.04
2022-08-01T23:40:24.868Z,17.05
2022-08-01T23:45:28.743Z,16.93
2022-08-01T23:50:53.428Z,16.90
2022-08-01T23:55:56.722Z,16.78
